Werra — V2GL2 — position and weather

sailwx.info

Track history (hours):
 
Tides and Currents Weather Stations Pressure Air Temp Water Temp Dewpoint Dewpoint Depression Visibility Wind Speed Wind Dir Waves Ship Positions

Werra

Last reported at 2018-Apr-24 04:25 UTC. Time now 2018-Apr-25 12:47 UTC.
Position N 50°51' W 006°50'.

Length 100 m; draft 4.1 m.

Type: Cargo ship. MMSI: 304214000.

Date/timePositionNaut miles runAvg speedWind from/ knotsBaromVisibWave heightAir tempDewpointWater temp
2018-Apr-24 04:25N 50°51' W 006°50'52 8.9
2018-Apr-23 22:34N 51°43' W 006°56'1 9.0
2018-Apr-23 22:30N 51°43' W 006°57'4 8.9
2018-Apr-23 22:00N 51°48' W 006°57'5 9.3
2018-Apr-23 21:30N 51°52' W 006°58'5 9.2
2018-Apr-23 21:00N 51°57' W 006°58'5 9.2
2018-Apr-23 20:30N 52°01' W 006°58'510.0
2018-Apr-23 19:58N 52°07' W 006°58'4 8.6
2018-Apr-23 19:30N 52°11' W 006°56'4 8.5
2018-Apr-23 19:00N 52°15' W 006°59'2 4.5
2018-Apr-23 18:30N 52°16' W 007°02'0 0.0
2018-Apr-23 17:56N 52°16' W 007°02'0 0.0
2018-Apr-23 17:26N 52°16' W 007°02'0 0.0
2018-Apr-23 16:56N 52°16' W 007°02'0 0.0
2018-Apr-23 16:26N 52°16' W 007°02'0 0.0
2018-Apr-23 15:59N 52°16' W 007°02'0 0.0
2018-Apr-23 15:26N 52°16' W 007°02'0 0.0
2018-Apr-23 14:56N 52°16' W 007°02'0 0.0
2018-Apr-23 14:23N 52°16' W 007°02'0 0.0
2018-Apr-23 13:53N 52°16' W 007°02'0 0.0
2018-Apr-23 13:26N 52°16' W 007°02'0 0.0
2018-Apr-23 12:56N 52°16' W 007°02'0 0.0
2018-Apr-23 12:20N 52°16' W 007°02'0 0.0
2018-Apr-23 11:59N 52°16' W 007°02'0 0.0
2018-Apr-23 11:29N 52°16' W 007°02'0 0.0
2018-Apr-23 10:56N 52°16' W 007°02'0 0.0
2018-Apr-23 10:26N 52°16' W 007°02'0 0.0
2018-Apr-23 09:56N 52°16' W 007°02'0 0.0
2018-Apr-23 09:26N 52°16' W 007°02'0 0.0
2018-Apr-23 08:56N 52°16' W 007°02'0 0.0
2018-Apr-23 08:26N 52°16' W 007°02'0 0.0
2018-Apr-23 07:53N 52°16' W 007°02'0 0.0
2018-Apr-23 07:26N 52°16' W 007°02'0 0.0
2018-Apr-23 06:56N 52°16' W 007°02'0 0.0
2018-Apr-23 06:26N 52°16' W 007°02'0 0.0
2018-Apr-23 05:56N 52°16' W 007°02'0 0.0
2018-Apr-23 05:26N 52°16' W 007°02'0 0.0
2018-Apr-23 04:59N 52°16' W 007°02'0 0.0
2018-Apr-23 04:26N 52°16' W 007°02'0 0.0
2018-Apr-23 03:56N 52°16' W 007°02'0 0.0
2018-Apr-23 03:26N 52°16' W 007°02'0 0.0
2018-Apr-23 02:59N 52°16' W 007°02'0 0.0
2018-Apr-23 02:26N 52°16' W 007°02'0 0.0
2018-Apr-23 01:56N 52°16' W 007°02'0 0.0
2018-Apr-23 01:26N 52°16' W 007°02'0 0.0
2018-Apr-23 00:56N 52°16' W 007°02'0 0.0
2018-Apr-23 00:26N 52°16' W 007°02'0 0.0
2018-Apr-22 23:56N 52°16' W 007°02'0 0.0
2018-Apr-22 23:26N 52°16' W 007°02'0 0.0
2018-Apr-22 22:56N 52°16' W 007°02'0 0.0
2018-Apr-22 22:26N 52°16' W 007°02'0 0.0
2018-Apr-22 21:56N 52°16' W 007°02'0 0.0
2018-Apr-22 21:26N 52°16' W 007°02'0 0.0
2018-Apr-22 20:56N 52°16' W 007°02'0 0.0
2018-Apr-22 20:29N 52°16' W 007°02'0 0.0
2018-Apr-22 19:56N 52°16' W 007°02'0 0.0
2018-Apr-22 19:14N 52°16' W 007°02'0 0.0
2018-Apr-22 18:59N 52°16' W 007°02'0 0.0
2018-Apr-22 18:20N 52°16' W 007°02'0 0.0
2018-Apr-22 17:44N 52°16' W 007°02'0 0.0
2018-Apr-22 17:29N 52°16' W 007°02'0 0.0
2018-Apr-22 16:44N 52°16' W 007°02'0 0.0
2018-Apr-22 16:29N 52°16' W 007°02'0 0.0
2018-Apr-22 15:56N 52°16' W 007°02'0 0.0
2018-Apr-22 15:14N 52°16' W 007°02'0 0.0
2018-Apr-22 14:50N 52°16' W 007°02'0 0.0
2018-Apr-22 14:29N 52°16' W 007°02'0 0.0
2018-Apr-22 13:59N 52°16' W 007°02'0 0.0
2018-Apr-22 13:26N 52°16' W 007°02'0 0.0
2018-Apr-22 12:56N 52°16' W 007°02'0 0.0
2018-Apr-22 12:26N 52°16' W 007°02'0 0.0
2018-Apr-22 11:53N 52°16' W 007°02'0 0.0
2018-Apr-22 11:23N 52°16' W 007°02'1 1.4
2018-Apr-22 11:00N 52°16' W 007°01'3 5.8
2018-Apr-22 10:30N 52°14' W 006°58'5 9.4
2018-Apr-22 10:00N 52°10' W 006°57'2 3.4
2018-Apr-22 09:30N 52°08' W 006°58'2 3.0
2018-Apr-22 09:00N 52°07' W 006°58'2 3.2
2018-Apr-22 08:30N 52°05' W 006°58'2 3.4
2018-Apr-22 08:00N 52°03' W 006°57'2 3.0
2018-Apr-22 07:30N 52°02' W 006°57'2 3.0
2018-Apr-22 07:00N 52°01' W 006°56'2 3.2
2018-Apr-22 06:30N 51°59' W 006°55'2 4.3
2018-Apr-22 05:59N 51°57' W 006°54'4 9.2
2018-Apr-22 05:30N 51°53' W 006°51'30 9.4
2018-Apr-22 02:21N 51°25' W 006°33'3 9.5
2018-Apr-22 02:00N 51°22' W 006°31'5 9.6
2018-Apr-22 01:30N 51°18' W 006°28'5 9.7
2018-Apr-22 01:00N 51°13' W 006°25'5 9.6
2018-Apr-22 00:30N 51°09' W 006°22'5 9.6
2018-Apr-22 00:00N 51°04' W 006°19'5 9.7
2018-Apr-21 23:30N 50°60' W 006°16'5 9.7
2018-Apr-21 23:00N 50°55' W 006°14'5 9.7
2018-Apr-21 22:30N 50°51' W 006°11'5 9.7
2018-Apr-21 21:58N 50°46' W 006°08'3410.1
2018-Apr-21 18:34N 50°13' W 005°52'60 9.6
2018-Apr-21 12:17N 49°59' W 004°21'710.5
2018-Apr-21 11:35N 50°01' W 004°09'110.3
2018-Apr-21 11:30N 50°01' W 004°08'17 9.8
2018-Apr-21 09:44N 50°05' W 003°42'3 9.4
2018-Apr-21 09:27N 50°05' W 003°38'5 9.7
2018-Apr-21 08:57N 50°06' W 003°30'4 9.9
2018-Apr-21 08:30N 50°07' W 003°23'510.1
2018-Apr-21 08:00N 50°08' W 003°16'510.5
2018-Apr-21 07:30N 50°09' W 003°08'611.0
2018-Apr-21 07:00N 50°10' W 002°59'611.7
2018-Apr-21 06:30N 50°11' W 002°50'612.4
2018-Apr-21 06:00N 50°12' W 002°41'713.1
2018-Apr-21 05:30N 50°14' W 002°31'713.8
2018-Apr-21 05:00N 50°15' W 002°20'714.0
2018-Apr-21 04:30N 50°16' W 002°09'713.9
2018-Apr-21 04:00N 50°17' W 001°59'713.3
2018-Apr-21 03:30N 50°19' W 001°49'612.6
2018-Apr-21 03:01N 50°20' W 001°39'611.7
2018-Apr-21 02:31N 50°21' W 001°30'510.8
2018-Apr-21 02:00N 50°22' W 001°22'510.0
2018-Apr-21 01:30N 50°23' W 001°14'5 9.2
2018-Apr-21 01:00N 50°24' W 001°07'4 8.5
2018-Apr-21 00:30N 50°25' W 001°00'4 7.9
2018-Apr-21 00:00N 50°26' W 000°54'4 8.0
2018-Apr-20 23:30N 50°27' W 000°48'4 7.6
2018-Apr-20 22:59N 50°27' W 000°42'4 8.0
2018-Apr-20 22:30N 50°28' W 000°36'4 8.7
2018-Apr-20 22:00N 50°29' W 000°29'5 9.4
2018-Apr-20 21:30N 50°30' W 000°22'510.4
2018-Apr-20 21:00N 50°31' W 000°14'611.1
2018-Apr-20 20:30N 50°32' W 000°05'611.7
2018-Apr-20 20:00N 50°33' E 000°03'612.1
2018-Apr-20 19:30N 50°35' E 000°12'612.3
2018-Apr-20 19:00N 50°37' E 000°22'612.2
2018-Apr-20 18:30N 50°38' E 000°31'611.7
2018-Apr-20 18:00N 50°41' E 000°39'611.4
2018-Apr-20 17:30N 50°44' E 000°46'510.8
2018-Apr-20 17:00N 50°48' E 000°53'610.2
2018-Apr-20 16:23N 50°51' E 001°02'4 9.6
2018-Apr-20 15:57N 50°54' E 001°07'5 9.1
2018-Apr-20 15:25N 50°57' E 001°13'4 8.4
2018-Apr-20 14:55N 50°59' E 001°18'3 8.0
2018-Apr-20 14:30N 51°02' E 001°22'5 8.4
2018-Apr-20 13:56N 51°05' E 001°28'4 9.7
2018-Apr-20 13:28N 51°07' E 001°33'510.5
2018-Apr-20 13:00N 51°11' E 001°39'510.8
2018-Apr-20 12:30N 51°15' E 001°45'612.8
2018-Apr-20 12:01N 51°20' E 001°49'713.2
2018-Apr-20 11:30N 51°26' E 001°54'713.0
2018-Apr-20 11:00N 51°31' E 002°01'612.9
2018-Apr-20 10:30N 51°36' E 002°08'712.6
2018-Apr-20 09:59N 51°41' E 002°15'612.2
2018-Apr-20 09:30N 51°45' E 002°22'611.5
2018-Apr-20 08:59N 51°49' E 002°28'611.0
2018-Apr-20 08:28N 51°54' E 002°34'510.4
2018-Apr-20 08:00N 51°57' E 002°39'510.1
2018-Apr-20 07:27N 52°02' E 002°45'5 9.7
2018-Apr-20 06:58N 52°05' E 002°50'50 9.7
2018-Apr-20 01:48N 52°44' E 003°41'311.5
2018-Apr-20 01:30N 52°47' E 003°45'611.6
2018-Apr-20 01:00N 52°51' E 003°51'611.7
2018-Apr-20 00:30N 52°56' E 003°57'711.8
2018-Apr-19 23:55N 52°60' E 004°06'1211.5
2018-Apr-19 22:55N 53°07' E 004°21'710.7
2018-Apr-19 22:17N 53°13' E 004°28'310.9
2018-Apr-19 21:59N 53°16' E 004°30'510.5
2018-Apr-19 21:30N 53°21' E 004°33'510.3
2018-Apr-19 21:00N 53°26' E 004°35'5 8.9
2018-Apr-19 20:28N 53°28' E 004°42'4 9.0
2018-Apr-19 19:59N 53°30' E 004°48'4 9.3
2018-Apr-19 19:30N 53°32' E 004°55'5 9.5
2018-Apr-19 19:00N 53°33' E 005°03'5 9.7
2018-Apr-19 18:29N 53°35' E 005°11'9110.8
2018-Apr-19 10:03N 54°01' E 007°39'0 9.3
2018-Apr-19 10:00N 54°01' E 007°40'5 9.3
2018-Apr-19 09:30N 54°01' E 007°48'5 9.8
2018-Apr-19 09:00N 54°01' E 007°56'510.2
2018-Apr-19 08:30N 54°01' E 008°05'510.3
2018-Apr-19 08:00N 54°00' E 008°13'612.8
2018-Apr-19 07:30N 53°59' E 008°24'713.6
2018-Apr-19 07:00N 53°58' E 008°36'714.2
2018-Apr-19 06:30N 53°53' E 008°43'713.3
2018-Apr-19 06:00N 53°51' E 008°54'713.2
2018-Apr-19 05:30N 53°53' E 009°05'2 5.0
2018-Apr-19 05:00N 53°54' E 009°09'1 1.3
2018-Apr-19 04:30N 53°54' E 009°09'1 2.0
2018-Apr-19 03:58N 53°55' E 009°11'0 0.0
2018-Apr-19 03:28N 53°55' E 009°11'0 0.0
2018-Apr-19 02:55N 53°55' E 009°11'0 0.0
2018-Apr-19 02:28N 53°55' E 009°11'0 0.0
2018-Apr-19 01:56N 53°55' E 009°11'0 1.1
2018-Apr-19 01:30N 53°55' E 009°11'4 7.1
2018-Apr-19 01:00N 53°58' E 009°15'4 8.2
2018-Apr-19 00:30N 54°02' E 009°18'4 7.9
2018-Apr-19 00:00N 54°06' E 009°20'4 7.5
2018-Apr-18 23:30N 54°09' E 009°22'0 0.2
2018-Apr-18 23:00N 54°09' E 009°22'2 4.4
2018-Apr-18 22:31N 54°10' E 009°25'3 6.6
2018-Apr-18 22:00N 54°11' E 009°30'3 6.7
2018-Apr-18 21:30N 54°13' E 009°35'4 7.7
2018-Apr-18 21:01N 54°17' E 009°38'4 7.9
2018-Apr-18 20:30N 54°19' E 009°43'5 8.0
2018-Apr-18 19:56N 54°22' E 009°49'26 6.0
2018-Apr-18 15:42N 54°33' E 010°29'3 9.6
2018-Apr-18 15:26N 54°34' E 010°33'410.2
2018-Apr-18 15:00N 54°35' E 010°41'510.5
2018-Apr-18 14:31N 54°35' E 010°50'510.1
2018-Apr-18 14:00N 54°36' E 010°58'510.0
2018-Apr-18 13:30N 54°36' E 011°07'510.4
2018-Apr-18 13:00N 54°36' E 011°16'5 9.9
2018-Apr-18 12:31N 54°33' E 011°23'510.3
2018-Apr-18 12:00N 54°30' E 011°31'1810.0
2018-Apr-18 10:10N 54°19' E 011°56'210.7
2018-Apr-18 09:57N 54°17' E 011°58'4 9.6
2018-Apr-18 09:30N 54°14' E 012°03'2 4.0
2018-Apr-18 09:00N 54°12' E 012°04'2 3.5
2018-Apr-18 08:28N 54°10' E 012°06'1 2.3
2018-Apr-18 07:53N 54°09' E 012°07'0 0.0
2018-Apr-18 07:28N 54°09' E 012°07'0 0.0
2018-Apr-18 05:28N 54°09' E 012°07'0 0.0
2018-Apr-18 04:49N 54°09' E 012°07'0 0.0
2018-Apr-18 04:16N 54°09' E 012°07'0 0.0
2018-Apr-18 03:58N 54°09' E 012°07'0 0.0
2018-Apr-18 03:19N 54°09' E 012°07'0 0.0
2018-Apr-18 02:58N 54°09' E 012°07'0 0.0
2018-Apr-18 02:28N 54°09' E 012°07'0 0.0
2018-Apr-18 01:22N 54°09' E 012°07'0 0.0
2018-Apr-18 00:07N 54°09' E 012°07'0 0.0
2018-Apr-17 23:49N 54°09' E 012°07'0 0.0
2018-Apr-17 23:22N 54°09' E 012°07'0 0.0
2018-Apr-17 22:58N 54°09' E 012°07'0 0.0
2018-Apr-17 22:25N 54°09' E 012°07'0 0.0
2018-Apr-17 21:52N 54°09' E 012°07'0 0.0
2018-Apr-17 21:28N 54°09' E 012°07'0 0.0
2018-Apr-17 20:55N 54°09' E 012°07'0 0.0
2018-Apr-17 19:43N 54°09' E 012°07'0 0.0
2018-Apr-17 19:28N 54°09' E 012°07'0 0.0
2018-Apr-17 18:13N 54°09' E 012°07'0 0.0
2018-Apr-17 17:58N 54°09' E 012°07'0 0.0
2018-Apr-17 15:58N 54°09' E 012°07'0 0.0
2018-Apr-17 15:28N 54°09' E 012°07'0 0.0
2018-Apr-17 14:58N 54°09' E 012°07'0 0.0
2018-Apr-17 12:58N 54°09' E 012°07'0 0.0
2018-Apr-17 11:28N 54°09' E 012°07'0 0.0
2018-Apr-17 10:58N 54°09' E 012°07'0 0.0
2018-Apr-17 09:58N 54°09' E 012°07'0 0.0
2018-Apr-17 08:58N 54°09' E 012°07'0 0.0
2018-Apr-17 08:22N 54°09' E 012°07'0 0.0
2018-Apr-17 07:58N 54°09' E 012°07'0 0.0
2018-Apr-17 06:58N 54°09' E 012°07'0 0.0
2018-Apr-17 05:43N 54°09' E 012°07'0 0.0
2018-Apr-17 05:22N 54°09' E 012°07'0 0.0
2018-Apr-17 04:58N 54°09' E 012°07'0 0.0
2018-Apr-17 04:28N 54°09' E 012°07'0 0.0
2018-Apr-17 03:16N 54°09' E 012°07'0 0.0
2018-Apr-17 02:58N 54°09' E 012°07'0 0.0
2018-Apr-17 02:28N 54°09' E 012°07'0 0.0
2018-Apr-17 01:43N 54°09' E 012°07'0 0.0
2018-Apr-17 01:25N 54°09' E 012°07'0 0.0
2018-Apr-17 00:40N 54°09' E 012°07'0 0.0
2018-Apr-17 00:28N 54°09' E 012°07'0 0.0
2018-Apr-16 23:52N 54°09' E 012°07'0 0.0
2018-Apr-16 20:58N 54°09' E 012°07'0 0.0
2018-Apr-16 18:19N 54°09' E 012°07'0 0.0
2018-Apr-16 17:58N 54°09' E 012°07'0 0.0
2018-Apr-16 15:25N 54°09' E 012°07'0 0.4
2018-Apr-16 14:30N 54°10' E 012°07'0 0.2
2018-Apr-16 12:59N 54°09' E 012°06'0 0.0
2018-Apr-16 11:14N 54°09' E 012°06'0 0.0
2018-Apr-16 10:59N 54°09' E 012°06'0 0.0
2018-Apr-16 10:29N 54°09' E 012°06'0 0.0
2018-Apr-16 09:53N 54°09' E 012°06'0 0.0
2018-Apr-16 09:26N 54°09' E 012°06'0 0.0
2018-Apr-16 06:41N 54°09' E 012°06'0 0.0
2018-Apr-16 06:29N 54°09' E 012°06'0 0.0
2018-Apr-16 03:14N 54°09' E 012°06'0 0.0
2018-Apr-16 02:59N 54°09' E 012°06'0 0.0
2018-Apr-16 00:59N 54°09' E 012°06'0 0.0
2018-Apr-15 23:29N 54°09' E 012°06'0 0.0
2018-Apr-15 21:59N 54°09' E 012°06'0 0.0
2018-Apr-15 21:20N 54°09' E 012°06'0 0.0
2018-Apr-15 20:59N 54°09' E 012°06'0 0.0
2018-Apr-15 20:11N 54°09' E 012°06'0 0.0
2018-Apr-15 19:56N 54°09' E 012°06'0 0.0
2018-Apr-15 18:56N 54°09' E 012°06'0 0.0
2018-Apr-15 18:23N 54°09' E 012°06'0 0.0
2018-Apr-15 17:59N 54°09' E 012°06'0 0.0
2018-Apr-15 17:29N 54°09' E 012°06'0 0.0
2018-Apr-15 15:14N 54°09' E 012°06'0 0.0
2018-Apr-15 14:59N 54°09' E 012°06'0 0.0
2018-Apr-15 14:29N 54°09' E 012°06'0 0.0
2018-Apr-15 13:53N 54°09' E 012°06'0 0.0
2018-Apr-15 12:44N 54°09' E 012°06'0 0.0
2018-Apr-15 12:29N 54°09' E 012°06'0 0.0
2018-Apr-15 11:59N 54°09' E 012°06'0 0.0
2018-Apr-15 10:38N 54°09' E 012°06'0 0.0
2018-Apr-15 10:14N 54°09' E 012°06'0 0.0
2018-Apr-15 09:59N 54°09' E 012°06'0 0.0
2018-Apr-15 07:59N 54°09' E 012°06'0 0.0
2018-Apr-15 06:59N 54°09' E 012°06'0 0.0
2018-Apr-15 06:29N 54°09' E 012°06'0 0.0
2018-Apr-15 04:59N 54°09' E 012°06'0 0.0
2018-Apr-15 04:26N 54°09' E 012°06'0 0.0
2018-Apr-15 03:59N 54°09' E 012°06'0 0.0
2018-Apr-15 01:59N 54°09' E 012°06'0 0.0
2018-Apr-15 01:26N 54°09' E 012°06'0 0.0
2018-Apr-15 00:59N 54°09' E 012°06'0 0.0
2018-Apr-14 23:41N 54°09' E 012°06'0 0.0
2018-Apr-14 23:26N 54°09' E 012°06'0 0.0
2018-Apr-14 22:56N 54°09' E 012°06'0 0.0
2018-Apr-14 22:17N 54°09' E 012°06'0 0.0
2018-Apr-14 21:44N 54°09' E 012°06'0 0.0
2018-Apr-14 21:28N 54°09' E 012°06'0 0.0
2018-Apr-14 20:59N 54°09' E 012°06'0 0.0
2018-Apr-14 20:28N 54°09' E 012°06'0 0.0
2018-Apr-14 19:38N 54°09' E 012°06'0 0.0
2018-Apr-14 19:23N 54°09' E 012°06'0 0.0
2018-Apr-14 18:59N 54°09' E 012°06'0 0.0
2018-Apr-14 18:17N 54°09' E 012°06'0 0.0
2018-Apr-14 16:59N 54°09' E 012°06'0 0.0
2018-Apr-14 16:28N 54°09' E 012°06'0 0.0
2018-Apr-14 15:55N 54°09' E 012°06'0 0.0
2018-Apr-14 15:28N 54°09' E 012°06'0 0.0
2018-Apr-14 14:59N 54°09' E 012°06'0 0.0
2018-Apr-14 12:40N 54°09' E 012°06'0 0.0
2018-Apr-14 12:26N 54°09' E 012°06'0 0.0
2018-Apr-14 11:53N 54°09' E 012°06'0 0.0
2018-Apr-14 10:59N 54°09' E 012°06'0 0.0
2018-Apr-14 10:13N 54°09' E 012°06'0 0.0
2018-Apr-14 09:56N 54°09' E 012°06'0 0.0
2018-Apr-14 09:16N 54°09' E 012°06'0 0.0
2018-Apr-14 08:56N 54°09' E 012°06'0 0.0
2018-Apr-14 07:44N 54°09' E 012°06'0 0.0
2018-Apr-14 07:29N 54°09' E 012°06'0 0.0
2018-Apr-14 06:38N 54°09' E 012°06'0 0.0
2018-Apr-14 06:29N 54°09' E 012°06'0 0.0
2018-Apr-14 05:50N 54°09' E 012°06'0 0.0
2018-Apr-14 05:23N 54°09' E 012°06'0 0.0
2018-Apr-14 04:44N 54°09' E 012°06'0 0.0
2018-Apr-14 04:25N 54°09' E 012°06'  
Track history (hours):
 
Tides and Currents Weather Stations Pressure Air Temp Water Temp Dewpoint Dewpoint Depression Visibility Wind Speed Wind Dir Waves Ship Positions

Werra

Last reported at 2018-Apr-24 04:25 UTC. Time now 2018-Apr-25 12:47 UTC.
Position N 50°51' W 006°50'.

Length 100 m; draft 4.1 m.

Type: Cargo ship. MMSI: 304214000.

Date/timePositionNaut miles runAvg speedWind from/ knotsBaromVisibWave heightAir tempDewpointWater temp
2018-Apr-24 04:25N 50°51' W 006°50'52 8.9
2018-Apr-23 22:34N 51°43' W 006°56'1 9.0
2018-Apr-23 22:30N 51°43' W 006°57'4 8.9
2018-Apr-23 22:00N 51°48' W 006°57'5 9.3
2018-Apr-23 21:30N 51°52' W 006°58'5 9.2
2018-Apr-23 21:00N 51°57' W 006°58'5 9.2
2018-Apr-23 20:30N 52°01' W 006°58'510.0
2018-Apr-23 19:58N 52°07' W 006°58'4 8.6
2018-Apr-23 19:30N 52°11' W 006°56'4 8.5
2018-Apr-23 19:00N 52°15' W 006°59'2 4.5
2018-Apr-23 18:30N 52°16' W 007°02'0 0.0
2018-Apr-23 17:56N 52°16' W 007°02'0 0.0
2018-Apr-23 17:26N 52°16' W 007°02'0 0.0
2018-Apr-23 16:56N 52°16' W 007°02'0 0.0
2018-Apr-23 16:26N 52°16' W 007°02'0 0.0
2018-Apr-23 15:59N 52°16' W 007°02'0 0.0
2018-Apr-23 15:26N 52°16' W 007°02'0 0.0
2018-Apr-23 14:56N 52°16' W 007°02'0 0.0
2018-Apr-23 14:23N 52°16' W 007°02'0 0.0
2018-Apr-23 13:53N 52°16' W 007°02'0 0.0
2018-Apr-23 13:26N 52°16' W 007°02'0 0.0
2018-Apr-23 12:56N 52°16' W 007°02'0 0.0
2018-Apr-23 12:20N 52°16' W 007°02'0 0.0
2018-Apr-23 11:59N 52°16' W 007°02'0 0.0
2018-Apr-23 11:29N 52°16' W 007°02'0 0.0
2018-Apr-23 10:56N 52°16' W 007°02'0 0.0
2018-Apr-23 10:26N 52°16' W 007°02'0 0.0
2018-Apr-23 09:56N 52°16' W 007°02'0 0.0
2018-Apr-23 09:26N 52°16' W 007°02'0 0.0
2018-Apr-23 08:56N 52°16' W 007°02'0 0.0
2018-Apr-23 08:26N 52°16' W 007°02'0 0.0
2018-Apr-23 07:53N 52°16' W 007°02'0 0.0
2018-Apr-23 07:26N 52°16' W 007°02'0 0.0
2018-Apr-23 06:56N 52°16' W 007°02'0 0.0
2018-Apr-23 06:26N 52°16' W 007°02'0 0.0
2018-Apr-23 05:56N 52°16' W 007°02'0 0.0
2018-Apr-23 05:26N 52°16' W 007°02'0 0.0
2018-Apr-23 04:59N 52°16' W 007°02'0 0.0
2018-Apr-23 04:26N 52°16' W 007°02'0 0.0
2018-Apr-23 03:56N 52°16' W 007°02'0 0.0
2018-Apr-23 03:26N 52°16' W 007°02'0 0.0
2018-Apr-23 02:59N 52°16' W 007°02'0 0.0
2018-Apr-23 02:26N 52°16' W 007°02'0 0.0
2018-Apr-23 01:56N 52°16' W 007°02'0 0.0
2018-Apr-23 01:26N 52°16' W 007°02'0 0.0
2018-Apr-23 00:56N 52°16' W 007°02'0 0.0
2018-Apr-23 00:26N 52°16' W 007°02'0 0.0
2018-Apr-22 23:56N 52°16' W 007°02'0 0.0
2018-Apr-22 23:26N 52°16' W 007°02'0 0.0
2018-Apr-22 22:56N 52°16' W 007°02'0 0.0
2018-Apr-22 22:26N 52°16' W 007°02'0 0.0
2018-Apr-22 21:56N 52°16' W 007°02'0 0.0
2018-Apr-22 21:26N 52°16' W 007°02'0 0.0
2018-Apr-22 20:56N 52°16' W 007°02'0 0.0
2018-Apr-22 20:29N 52°16' W 007°02'0 0.0
2018-Apr-22 19:56N 52°16' W 007°02'0 0.0
2018-Apr-22 19:14N 52°16' W 007°02'0 0.0
2018-Apr-22 18:59N 52°16' W 007°02'0 0.0
2018-Apr-22 18:20N 52°16' W 007°02'0 0.0
2018-Apr-22 17:44N 52°16' W 007°02'0 0.0
2018-Apr-22 17:29N 52°16' W 007°02'0 0.0
2018-Apr-22 16:44N 52°16' W 007°02'0 0.0
2018-Apr-22 16:29N 52°16' W 007°02'0 0.0
2018-Apr-22 15:56N 52°16' W 007°02'0 0.0
2018-Apr-22 15:14N 52°16' W 007°02'0 0.0
2018-Apr-22 14:50N 52°16' W 007°02'0 0.0
2018-Apr-22 14:29N 52°16' W 007°02'0 0.0
2018-Apr-22 13:59N 52°16' W 007°02'0 0.0
2018-Apr-22 13:26N 52°16' W 007°02'0 0.0
2018-Apr-22 12:56N 52°16' W 007°02'0 0.0
2018-Apr-22 12:26N 52°16' W 007°02'0 0.0
2018-Apr-22 11:53N 52°16' W 007°02'0 0.0
2018-Apr-22 11:23N 52°16' W 007°02'1 1.4
2018-Apr-22 11:00N 52°16' W 007°01'3 5.8
2018-Apr-22 10:30N 52°14' W 006°58'5 9.4
2018-Apr-22 10:00N 52°10' W 006°57'2 3.4
2018-Apr-22 09:30N 52°08' W 006°58'2 3.0
2018-Apr-22 09:00N 52°07' W 006°58'2 3.2
2018-Apr-22 08:30N 52°05' W 006°58'2 3.4
2018-Apr-22 08:00N 52°03' W 006°57'2 3.0
2018-Apr-22 07:30N 52°02' W 006°57'2 3.0
2018-Apr-22 07:00N 52°01' W 006°56'2 3.2
2018-Apr-22 06:30N 51°59' W 006°55'2 4.3
2018-Apr-22 05:59N 51°57' W 006°54'4 9.2
2018-Apr-22 05:30N 51°53' W 006°51'30 9.4
2018-Apr-22 02:21N 51°25' W 006°33'3 9.5
2018-Apr-22 02:00N 51°22' W 006°31'5 9.6
2018-Apr-22 01:30N 51°18' W 006°28'5 9.7
2018-Apr-22 01:00N 51°13' W 006°25'5 9.6
2018-Apr-22 00:30N 51°09' W 006°22'5 9.6
2018-Apr-22 00:00N 51°04' W 006°19'5 9.7
2018-Apr-21 23:30N 50°60' W 006°16'5 9.7
2018-Apr-21 23:00N 50°55' W 006°14'5 9.7
2018-Apr-21 22:30N 50°51' W 006°11'5 9.7
2018-Apr-21 21:58N 50°46' W 006°08'3410.1
2018-Apr-21 18:34N 50°13' W 005°52'60 9.6
2018-Apr-21 12:17N 49°59' W 004°21'710.5
2018-Apr-21 11:35N 50°01' W 004°09'110.3
2018-Apr-21 11:30N 50°01' W 004°08'17 9.8
2018-Apr-21 09:44N 50°05' W 003°42'3 9.4
2018-Apr-21 09:27N 50°05' W 003°38'5 9.7
2018-Apr-21 08:57N 50°06' W 003°30'4 9.9
2018-Apr-21 08:30N 50°07' W 003°23'510.1
2018-Apr-21 08:00N 50°08' W 003°16'510.5
2018-Apr-21 07:30N 50°09' W 003°08'611.0
2018-Apr-21 07:00N 50°10' W 002°59'611.7
2018-Apr-21 06:30N 50°11' W 002°50'612.4
2018-Apr-21 06:00N 50°12' W 002°41'713.1
2018-Apr-21 05:30N 50°14' W 002°31'713.8
2018-Apr-21 05:00N 50°15' W 002°20'714.0
2018-Apr-21 04:30N 50°16' W 002°09'713.9
2018-Apr-21 04:00N 50°17' W 001°59'713.3
2018-Apr-21 03:30N 50°19' W 001°49'612.6
2018-Apr-21 03:01N 50°20' W 001°39'611.7
2018-Apr-21 02:31N 50°21' W 001°30'510.8
2018-Apr-21 02:00N 50°22' W 001°22'510.0
2018-Apr-21 01:30N 50°23' W 001°14'5 9.2
2018-Apr-21 01:00N 50°24' W 001°07'4 8.5
2018-Apr-21 00:30N 50°25' W 001°00'4 7.9
2018-Apr-21 00:00N 50°26' W 000°54'4 8.0
2018-Apr-20 23:30N 50°27' W 000°48'4 7.6
2018-Apr-20 22:59N 50°27' W 000°42'4 8.0
2018-Apr-20 22:30N 50°28' W 000°36'4 8.7
2018-Apr-20 22:00N 50°29' W 000°29'5 9.4
2018-Apr-20 21:30N 50°30' W 000°22'510.4
2018-Apr-20 21:00N 50°31' W 000°14'611.1
2018-Apr-20 20:30N 50°32' W 000°05'611.7
2018-Apr-20 20:00N 50°33' E 000°03'612.1
2018-Apr-20 19:30N 50°35' E 000°12'612.3
2018-Apr-20 19:00N 50°37' E 000°22'612.2
2018-Apr-20 18:30N 50°38' E 000°31'611.7
2018-Apr-20 18:00N 50°41' E 000°39'611.4
2018-Apr-20 17:30N 50°44' E 000°46'510.8
2018-Apr-20 17:00N 50°48' E 000°53'610.2
2018-Apr-20 16:23N 50°51' E 001°02'4 9.6
2018-Apr-20 15:57N 50°54' E 001°07'5 9.1
2018-Apr-20 15:25N 50°57' E 001°13'4 8.4
2018-Apr-20 14:55N 50°59' E 001°18'3 8.0
2018-Apr-20 14:30N 51°02' E 001°22'5 8.4
2018-Apr-20 13:56N 51°05' E 001°28'4 9.7
2018-Apr-20 13:28N 51°07' E 001°33'510.5
2018-Apr-20 13:00N 51°11' E 001°39'510.8
2018-Apr-20 12:30N 51°15' E 001°45'612.8
2018-Apr-20 12:01N 51°20' E 001°49'713.2
2018-Apr-20 11:30N 51°26' E 001°54'713.0
2018-Apr-20 11:00N 51°31' E 002°01'612.9
2018-Apr-20 10:30N 51°36' E 002°08'712.6
2018-Apr-20 09:59N 51°41' E 002°15'612.2
2018-Apr-20 09:30N 51°45' E 002°22'611.5
2018-Apr-20 08:59N 51°49' E 002°28'611.0
2018-Apr-20 08:28N 51°54' E 002°34'510.4
2018-Apr-20 08:00N 51°57' E 002°39'510.1
2018-Apr-20 07:27N 52°02' E 002°45'5 9.7
2018-Apr-20 06:58N 52°05' E 002°50'50 9.7
2018-Apr-20 01:48N 52°44' E 003°41'311.5
2018-Apr-20 01:30N 52°47' E 003°45'611.6
2018-Apr-20 01:00N 52°51' E 003°51'611.7
2018-Apr-20 00:30N 52°56' E 003°57'711.8
2018-Apr-19 23:55N 52°60' E 004°06'1211.5
2018-Apr-19 22:55N 53°07' E 004°21'710.7
2018-Apr-19 22:17N 53°13' E 004°28'310.9
2018-Apr-19 21:59N 53°16' E 004°30'510.5
2018-Apr-19 21:30N 53°21' E 004°33'510.3
2018-Apr-19 21:00N 53°26' E 004°35'5 8.9
2018-Apr-19 20:28N 53°28' E 004°42'4 9.0
2018-Apr-19 19:59N 53°30' E 004°48'4 9.3
2018-Apr-19 19:30N 53°32' E 004°55'5 9.5
2018-Apr-19 19:00N 53°33' E 005°03'5 9.7
2018-Apr-19 18:29N 53°35' E 005°11'9110.8
2018-Apr-19 10:03N 54°01' E 007°39'0 9.3
2018-Apr-19 10:00N 54°01' E 007°40'5 9.3
2018-Apr-19 09:30N 54°01' E 007°48'5 9.8
2018-Apr-19 09:00N 54°01' E 007°56'510.2
2018-Apr-19 08:30N 54°01' E 008°05'510.3
2018-Apr-19 08:00N 54°00' E 008°13'612.8
2018-Apr-19 07:30N 53°59' E 008°24'713.6
2018-Apr-19 07:00N 53°58' E 008°36'714.2
2018-Apr-19 06:30N 53°53' E 008°43'713.3
2018-Apr-19 06:00N 53°51' E 008°54'713.2
2018-Apr-19 05:30N 53°53' E 009°05'2 5.0
2018-Apr-19 05:00N 53°54' E 009°09'1 1.3
2018-Apr-19 04:30N 53°54' E 009°09'1 2.0
2018-Apr-19 03:58N 53°55' E 009°11'0 0.0
2018-Apr-19 03:28N 53°55' E 009°11'0 0.0
2018-Apr-19 02:55N 53°55' E 009°11'0 0.0
2018-Apr-19 02:28N 53°55' E 009°11'0 0.0
2018-Apr-19 01:56N 53°55' E 009°11'0 1.1
2018-Apr-19 01:30N 53°55' E 009°11'4 7.1
2018-Apr-19 01:00N 53°58' E 009°15'4 8.2
2018-Apr-19 00:30N 54°02' E 009°18'4 7.9
2018-Apr-19 00:00N 54°06' E 009°20'4 7.5
2018-Apr-18 23:30N 54°09' E 009°22'0 0.2
2018-Apr-18 23:00N 54°09' E 009°22'2 4.4
2018-Apr-18 22:31N 54°10' E 009°25'3 6.6
2018-Apr-18 22:00N 54°11' E 009°30'3 6.7
2018-Apr-18 21:30N 54°13' E 009°35'4 7.7
2018-Apr-18 21:01N 54°17' E 009°38'4 7.9
2018-Apr-18 20:30N 54°19' E 009°43'5 8.0
2018-Apr-18 19:56N 54°22' E 009°49'26 6.0
2018-Apr-18 15:42N 54°33' E 010°29'3 9.6
2018-Apr-18 15:26N 54°34' E 010°33'410.2
2018-Apr-18 15:00N 54°35' E 010°41'510.5
2018-Apr-18 14:31N 54°35' E 010°50'510.1
2018-Apr-18 14:00N 54°36' E 010°58'510.0
2018-Apr-18 13:30N 54°36' E 011°07'510.4
2018-Apr-18 13:00N 54°36' E 011°16'5 9.9
2018-Apr-18 12:31N 54°33' E 011°23'510.3
2018-Apr-18 12:00N 54°30' E 011°31'1810.0
2018-Apr-18 10:10N 54°19' E 011°56'210.7
2018-Apr-18 09:57N 54°17' E 011°58'4 9.6
2018-Apr-18 09:30N 54°14' E 012°03'2 4.0
2018-Apr-18 09:00N 54°12' E 012°04'2 3.5
2018-Apr-18 08:28N 54°10' E 012°06'1 2.3
2018-Apr-18 07:53N 54°09' E 012°07'0 0.0
2018-Apr-18 07:28N 54°09' E 012°07'0 0.0
2018-Apr-18 05:28N 54°09' E 012°07'0 0.0
2018-Apr-18 04:49N 54°09' E 012°07'0 0.0
2018-Apr-18 04:16N 54°09' E 012°07'0 0.0
2018-Apr-18 03:58N 54°09' E 012°07'0 0.0
2018-Apr-18 03:19N 54°09' E 012°07'0 0.0
2018-Apr-18 02:58N 54°09' E 012°07'0 0.0
2018-Apr-18 02:28N 54°09' E 012°07'0 0.0
2018-Apr-18 01:22N 54°09' E 012°07'0 0.0
2018-Apr-18 00:07N 54°09' E 012°07'0 0.0
2018-Apr-17 23:49N 54°09' E 012°07'0 0.0
2018-Apr-17 23:22N 54°09' E 012°07'0 0.0
2018-Apr-17 22:58N 54°09' E 012°07'0 0.0
2018-Apr-17 22:25N 54°09' E 012°07'0 0.0
2018-Apr-17 21:52N 54°09' E 012°07'0 0.0
2018-Apr-17 21:28N 54°09' E 012°07'0 0.0
2018-Apr-17 20:55N 54°09' E 012°07'0 0.0
2018-Apr-17 19:43N 54°09' E 012°07'0 0.0
2018-Apr-17 19:28N 54°09' E 012°07'0 0.0
2018-Apr-17 18:13N 54°09' E 012°07'0 0.0
2018-Apr-17 17:58N 54°09' E 012°07'0 0.0
2018-Apr-17 15:58N 54°09' E 012°07'0 0.0
2018-Apr-17 15:28N 54°09' E 012°07'0 0.0
2018-Apr-17 14:58N 54°09' E 012°07'0 0.0
2018-Apr-17 12:58N 54°09' E 012°07'0 0.0
2018-Apr-17 11:28N 54°09' E 012°07'0 0.0
2018-Apr-17 10:58N 54°09' E 012°07'0 0.0
2018-Apr-17 09:58N 54°09' E 012°07'0 0.0
2018-Apr-17 08:58N 54°09' E 012°07'0 0.0
2018-Apr-17 08:22N 54°09' E 012°07'0 0.0
2018-Apr-17 07:58N 54°09' E 012°07'0 0.0
2018-Apr-17 06:58N 54°09' E 012°07'0 0.0
2018-Apr-17 05:43N 54°09' E 012°07'0 0.0
2018-Apr-17 05:22N 54°09' E 012°07'0 0.0
2018-Apr-17 04:58N 54°09' E 012°07'0 0.0
2018-Apr-17 04:28N 54°09' E 012°07'0 0.0
2018-Apr-17 03:16N 54°09' E 012°07'0 0.0
2018-Apr-17 02:58N 54°09' E 012°07'0 0.0
2018-Apr-17 02:28N 54°09' E 012°07'0 0.0
2018-Apr-17 01:43N 54°09' E 012°07'0 0.0
2018-Apr-17 01:25N 54°09' E 012°07'0 0.0
2018-Apr-17 00:40N 54°09' E 012°07'0 0.0
2018-Apr-17 00:28N 54°09' E 012°07'0 0.0
2018-Apr-16 23:52N 54°09' E 012°07'0 0.0
2018-Apr-16 20:58N 54°09' E 012°07'0 0.0
2018-Apr-16 18:19N 54°09' E 012°07'0 0.0
2018-Apr-16 17:58N 54°09' E 012°07'0 0.0
2018-Apr-16 15:25N 54°09' E 012°07'0 0.4
2018-Apr-16 14:30N 54°10' E 012°07'0 0.2
2018-Apr-16 12:59N 54°09' E 012°06'0 0.0
2018-Apr-16 11:14N 54°09' E 012°06'0 0.0
2018-Apr-16 10:59N 54°09' E 012°06'0 0.0
2018-Apr-16 10:29N 54°09' E 012°06'0 0.0
2018-Apr-16 09:53N 54°09' E 012°06'0 0.0
2018-Apr-16 09:26N 54°09' E 012°06'0 0.0
2018-Apr-16 06:41N 54°09' E 012°06'0 0.0
2018-Apr-16 06:29N 54°09' E 012°06'0 0.0
2018-Apr-16 03:14N 54°09' E 012°06'0 0.0
2018-Apr-16 02:59N 54°09' E 012°06'0 0.0
2018-Apr-16 00:59N 54°09' E 012°06'0 0.0
2018-Apr-15 23:29N 54°09' E 012°06'0 0.0
2018-Apr-15 21:59N 54°09' E 012°06'0 0.0
2018-Apr-15 21:20N 54°09' E 012°06'0 0.0
2018-Apr-15 20:59N 54°09' E 012°06'0 0.0
2018-Apr-15 20:11N 54°09' E 012°06'0 0.0
2018-Apr-15 19:56N 54°09' E 012°06'0 0.0
2018-Apr-15 18:56N 54°09' E 012°06'0 0.0
2018-Apr-15 18:23N 54°09' E 012°06'0 0.0
2018-Apr-15 17:59N 54°09' E 012°06'0 0.0
2018-Apr-15 17:29N 54°09' E 012°06'0 0.0
2018-Apr-15 15:14N 54°09' E 012°06'0 0.0
2018-Apr-15 14:59N 54°09' E 012°06'0 0.0
2018-Apr-15 14:29N 54°09' E 012°06'0 0.0
2018-Apr-15 13:53N 54°09' E 012°06'0 0.0
2018-Apr-15 12:44N 54°09' E 012°06'0 0.0
2018-Apr-15 12:29N 54°09' E 012°06'0 0.0
2018-Apr-15 11:59N 54°09' E 012°06'0 0.0
2018-Apr-15 10:38N 54°09' E 012°06'0 0.0
2018-Apr-15 10:14N 54°09' E 012°06'0 0.0
2018-Apr-15 09:59N 54°09' E 012°06'0 0.0
2018-Apr-15 07:59N 54°09' E 012°06'0 0.0
2018-Apr-15 06:59N 54°09' E 012°06'0 0.0
2018-Apr-15 06:29N 54°09' E 012°06'0 0.0
2018-Apr-15 04:59N 54°09' E 012°06'0 0.0
2018-Apr-15 04:26N 54°09' E 012°06'0 0.0
2018-Apr-15 03:59N 54°09' E 012°06'0 0.0
2018-Apr-15 01:59N 54°09' E 012°06'0 0.0
2018-Apr-15 01:26N 54°09' E 012°06'0 0.0
2018-Apr-15 00:59N 54°09' E 012°06'0 0.0
2018-Apr-14 23:41N 54°09' E 012°06'0 0.0
2018-Apr-14 23:26N 54°09' E 012°06'0 0.0
2018-Apr-14 22:56N 54°09' E 012°06'0 0.0
2018-Apr-14 22:17N 54°09' E 012°06'0 0.0
2018-Apr-14 21:44N 54°09' E 012°06'0 0.0
2018-Apr-14 21:28N 54°09' E 012°06'0 0.0
2018-Apr-14 20:59N 54°09' E 012°06'0 0.0
2018-Apr-14 20:28N 54°09' E 012°06'0 0.0
2018-Apr-14 19:38N 54°09' E 012°06'0 0.0
2018-Apr-14 19:23N 54°09' E 012°06'0 0.0
2018-Apr-14 18:59N 54°09' E 012°06'0 0.0
2018-Apr-14 18:17N 54°09' E 012°06'0 0.0
2018-Apr-14 16:59N 54°09' E 012°06'0 0.0
2018-Apr-14 16:28N 54°09' E 012°06'0 0.0
2018-Apr-14 15:55N 54°09' E 012°06'0 0.0
2018-Apr-14 15:28N 54°09' E 012°06'0 0.0
2018-Apr-14 14:59N 54°09' E 012°06'0 0.0
2018-Apr-14 12:40N 54°09' E 012°06'0 0.0
2018-Apr-14 12:26N 54°09' E 012°06'0 0.0
2018-Apr-14 11:53N 54°09' E 012°06'0 0.0
2018-Apr-14 10:59N 54°09' E 012°06'0 0.0
2018-Apr-14 10:13N 54°09' E 012°06'0 0.0
2018-Apr-14 09:56N 54°09' E 012°06'0 0.0
2018-Apr-14 09:16N 54°09' E 012°06'0 0.0
2018-Apr-14 08:56N 54°09' E 012°06'0 0.0
2018-Apr-14 07:44N 54°09' E 012°06'0 0.0
2018-Apr-14 07:29N 54°09' E 012°06'0 0.0
2018-Apr-14 06:38N 54°09' E 012°06'0 0.0
2018-Apr-14 06:29N 54°09' E 012°06'0 0.0
2018-Apr-14 05:50N 54°09' E 012°06'0 0.0
2018-Apr-14 05:23N 54°09' E 012°06'0 0.0
2018-Apr-14 04:44N 54°09' E 012°06'0 0.0
2018-Apr-14 04:25N 54°09' E 012°06'  

Dump ship's entire track history